sensor_id;sensor_type;location;lat;lon;timestamp;temperature;humidity
44731;DHT22;30458;47.448;19.032;2023-06-14T00:07:55;17.30;96.00
44731;DHT22;30458;47.448;19.032;2023-06-14T00:17:59;17.30;96.70
44731;DHT22;30458;47.448;19.032;2023-06-14T00:28:06;17.20;96.60
44731;DHT22;30458;47.448;19.032;2023-06-14T00:38:09;17.30;97.10
44731;DHT22;30458;47.448;19.032;2023-06-14T00:48:10;17.30;97.50
44731;DHT22;30458;47.448;19.032;2023-06-14T00:58:17;17.20;98.10
44731;DHT22;30458;47.448;19.032;2023-06-14T01:08:26;17.20;98.30
44731;DHT22;30458;47.448;19.032;2023-06-14T01:18:31;17.20;98.60
44731;DHT22;30458;47.448;19.032;2023-06-14T01:28:33;17.10;99.10
44731;DHT22;30458;47.448;19.032;2023-06-14T01:38:39;17.20;99.10
44731;DHT22;30458;47.448;19.032;2023-06-14T01:48:42;17.10;99.60
44731;DHT22;30458;47.448;19.032;2023-06-14T01:58:53;17.00;99.90
44731;DHT22;30458;47.448;19.032;2023-06-14T02:08:56;16.90;99.90
44731;DHT22;30458;47.448;19.032;2023-06-14T02:19:02;16.90;99.90
44731;DHT22;30458;47.448;19.032;2023-06-14T02:29:08;16.90;99.90
44731;DHT22;30458;47.448;19.032;2023-06-14T02:39:13;16.60;99.90
44731;DHT22;30458;47.448;19.032;2023-06-14T02:49:14;16.50;99.90
44731;DHT22;30458;47.448;19.032;2023-06-14T02:59:14;16.20;99.90
44731;DHT22;30458;47.448;19.032;2023-06-14T03:09:19;16.30;99.90
44731;DHT22;30458;47.448;19.032;2023-06-14T03:19:21;16.50;99.90
44731;DHT22;30458;47.448;19.032;2023-06-14T03:29:25;16.70;99.90
44731;DHT22;30458;47.448;19.032;2023-06-14T03:39:27;17.00;99.90
44731;DHT22;30458;47.448;19.032;2023-06-14T03:49:32;17.30;99.90
44731;DHT22;30458;47.448;19.032;2023-06-14T03:59:33;17.60;99.90
44731;DHT22;30458;47.448;19.032;2023-06-14T04:09:33;17.90;99.90
44731;DHT22;30458;47.448;19.032;2023-06-14T04:19:37;18.10;99.90
44731;DHT22;30458;47.448;19.032;2023-06-14T04:29:38;18.30;99.90
44731;DHT22;30458;47.448;19.032;2023-06-14T04:39:44;18.50;99.90
44731;DHT22;30458;47.448;19.032;2023-06-14T04:49:46;18.90;99.60
44731;DHT22;30458;47.448;19.032;2023-06-14T04:59:46;19.80;98.80
44731;DHT22;30458;47.448;19.032;2023-06-14T05:09:47;19.80;98.20
44731;DHT22;30458;47.448;19.032;2023-06-14T05:19:49;19.90;97.70
44731;DHT22;30458;47.448;19.032;2023-06-14T05:29:50;20.40;97.60
44731;DHT22;30458;47.448;19.032;2023-06-14T05:39:53;20.80;96.90
44731;DHT22;30458;47.448;19.032;2023-06-14T05:49:54;21.20;96.00
44731;DHT22;30458;47.448;19.032;2023-06-14T05:59:55;21.20;96.40
44731;DHT22;30458;47.448;19.032;2023-06-14T06:09:56;21.40;95.70
44731;DHT22;30458;47.448;19.032;2023-06-14T06:19:59;21.40;96.10
44731;DHT22;30458;47.448;19.032;2023-06-14T06:30:00;22.40;94.50
44731;DHT22;30458;47.448;19.032;2023-06-14T06:40:04;22.70;94.80
44731;DHT22;30458;47.448;19.032;2023-06-14T06:50:09;23.00;93.60
44731;DHT22;30458;47.448;19.032;2023-06-14T07:00:10;22.20;94.50
44731;DHT22;30458;47.448;19.032;2023-06-14T07:10:11;21.60;95.60
44731;DHT22;30458;47.448;19.032;2023-06-14T07:20:14;22.00;94.80
44731;DHT22;30458;47.448;19.032;2023-06-14T07:30:16;22.30;95.00
44731;DHT22;30458;47.448;19.032;2023-06-14T07:40:16;22.40;94.50
44731;DHT22;30458;47.448;19.032;2023-06-14T07:50:20;21.80;94.70
44731;DHT22;30458;47.448;19.032;2023-06-14T08:00:21;21.30;95.50
44731;DHT22;30458;47.448;19.032;2023-06-14T08:10:24;21.70;94.90
44731;DHT22;30458;47.448;19.032;2023-06-14T08:20:25;21.70;96.00
44731;DHT22;30458;47.448;19.032;2023-06-14T08:30:58;22.00;95.20
44731;DHT22;30458;47.448;19.032;2023-06-14T08:41:01;22.00;94.70
44731;DHT22;30458;47.448;19.032;2023-06-14T08:51:04;22.70;94.40
44731;DHT22;30458;47.448;19.032;2023-06-14T09:01:11;22.40;94.10
44731;DHT22;30458;47.448;19.032;2023-06-14T09:11:16;23.10;93.30
44731;DHT22;30458;47.448;19.032;2023-06-14T09:21:22;23.30;93.70
44731;DHT22;30458;47.448;19.032;2023-06-14T09:31:25;23.50;93.40
44731;DHT22;30458;47.448;19.032;2023-06-14T09:41:40;22.70;93.40
44731;DHT22;30458;47.448;19.032;2023-06-14T09:51:45;22.60;93.10
44731;DHT22;30458;47.448;19.032;2023-06-14T10:01:49;22.80;93.00
44731;DHT22;30458;47.448;19.032;2023-06-14T10:11:50;23.00;93.40
44731;DHT22;30458;47.448;19.032;2023-06-14T10:22:14;23.40;92.90
44731;DHT22;30458;47.448;19.032;2023-06-14T10:32:17;23.40;92.10
44731;DHT22;30458;47.448;19.032;2023-06-14T10:42:19;23.30;90.50
44731;DHT22;30458;47.448;19.032;2023-06-14T10:52:26;23.40;88.90
44731;DHT22;30458;47.448;19.032;2023-06-14T11:12:50;23.00;84.30
44731;DHT22;30458;47.448;19.032;2023-06-14T11:22:53;23.00;87.90
44731;DHT22;30458;47.448;19.032;2023-06-14T11:32:55;23.10;85.30
44731;DHT22;30458;47.448;19.032;2023-06-14T11:43:00;23.10;82.60
44731;DHT22;30458;47.448;19.032;2023-06-14T11:53:03;23.30;82.10
44731;DHT22;30458;47.448;19.032;2023-06-14T12:03:07;23.40;82.70
44731;DHT22;30458;47.448;19.032;2023-06-14T12:13:09;23.50;83.70
44731;DHT22;30458;47.448;19.032;2023-06-14T12:23:17;23.60;81.30
44731;DHT22;30458;47.448;19.032;2023-06-14T12:33:17;23.40;80.40
44731;DHT22;30458;47.448;19.032;2023-06-14T12:43:20;23.60;81.70
44731;DHT22;30458;47.448;19.032;2023-06-14T12:53:26;23.80;80.70
44731;DHT22;30458;47.448;19.032;2023-06-14T13:03:28;23.70;82.30
44731;DHT22;30458;47.448;19.032;2023-06-14T13:13:28;23.70;84.20
44731;DHT22;30458;47.448;19.032;2023-06-14T13:23:32;23.70;83.00
44731;DHT22;30458;47.448;19.032;2023-06-14T13:33:33;23.60;87.80
44731;DHT22;30458;47.448;19.032;2023-06-14T13:43:33;23.50;88.50
44731;DHT22;30458;47.448;19.032;2023-06-14T13:53:37;23.50;88.00
44731;DHT22;30458;47.448;19.032;2023-06-14T14:03:38;23.70;89.40
44731;DHT22;30458;47.448;19.032;2023-06-14T14:13:38;23.70;88.20
44731;DHT22;30458;47.448;19.032;2023-06-14T14:23:40;23.50;87.80
44731;DHT22;30458;47.448;19.032;2023-06-14T14:33:41;23.30;87.90
44731;DHT22;30458;47.448;19.032;2023-06-14T14:43:44;23.30;89.00
44731;DHT22;30458;47.448;19.032;2023-06-14T14:53:45;23.20;88.00
44731;DHT22;30458;47.448;19.032;2023-06-14T15:03:45;23.10;87.20
44731;DHT22;30458;47.448;19.032;2023-06-14T15:13:49;23.10;86.90
44731;DHT22;30458;47.448;19.032;2023-06-14T15:23:50;23.10;89.00
44731;DHT22;30458;47.448;19.032;2023-06-14T15:33:53;22.90;88.30
44731;DHT22;30458;47.448;19.032;2023-06-14T15:43:54;22.70;88.10
44731;DHT22;30458;47.448;19.032;2023-06-14T15:53:55;22.60;87.10
44731;DHT22;30458;47.448;19.032;2023-06-14T16:03:58;22.60;87.30
44731;DHT22;30458;47.448;19.032;2023-06-14T16:13:58;22.50;86.50
44731;DHT22;30458;47.448;19.032;2023-06-14T16:24:03;22.40;85.20
44731;DHT22;30458;47.448;19.032;2023-06-14T16:34:04;22.40;85.20
44731;DHT22;30458;47.448;19.032;2023-06-14T16:44:08;22.40;84.90
44731;DHT22;30458;47.448;19.032;2023-06-14T16:54:10;22.40;85.10
44731;DHT22;30458;47.448;19.032;2023-06-14T17:04:13;22.50;85.00
44731;DHT22;30458;47.448;19.032;2023-06-14T17:14:14;22.60;85.50
44731;DHT22;30458;47.448;19.032;2023-06-14T17:24:15;22.70;85.30
44731;DHT22;30458;47.448;19.032;2023-06-14T17:34:18;22.70;85.00
44731;DHT22;30458;47.448;19.032;2023-06-14T17:44:21;22.60;85.30
44731;DHT22;30458;47.448;19.032;2023-06-14T17:54:26;22.40;83.90
44731;DHT22;30458;47.448;19.032;2023-06-14T18:04:27;22.40;83.70
44731;DHT22;30458;47.448;19.032;2023-06-14T18:14:30;22.30;85.20
44731;DHT22;30458;47.448;19.032;2023-06-14T18:24:31;22.30;86.70
44731;DHT22;30458;47.448;19.032;2023-06-14T18:34:32;22.20;87.20
44731;DHT22;30458;47.448;19.032;2023-06-14T18:44:32;21.70;88.20
44731;DHT22;30458;47.448;19.032;2023-06-14T18:54:36;21.30;89.70
44731;DHT22;30458;47.448;19.032;2023-06-14T19:04:39;21.20;90.10
44731;DHT22;30458;47.448;19.032;2023-06-14T19:14:43;21.30;90.70
44731;DHT22;30458;47.448;19.032;2023-06-14T19:24:44;21.20;91.00
44731;DHT22;30458;47.448;19.032;2023-06-14T19:34:45;20.80;91.80
44731;DHT22;30458;47.448;19.032;2023-06-14T19:44:46;20.50;92.50
44731;DHT22;30458;47.448;19.032;2023-06-14T19:54:49;20.20;93.00
44731;DHT22;30458;47.448;19.032;2023-06-14T20:04:50;20.10;93.40
44731;DHT22;30458;47.448;19.032;2023-06-14T20:14:56;20.00;93.90
44731;DHT22;30458;47.448;19.032;2023-06-14T20:24:59;19.90;94.30
44731;DHT22;30458;47.448;19.032;2023-06-14T20:35:02;19.80;94.60
44731;DHT22;30458;47.448;19.032;2023-06-14T20:45:04;19.70;94.80
44731;DHT22;30458;47.448;19.032;2023-06-14T20:55:10;19.50;95.20
44731;DHT22;30458;47.448;19.032;2023-06-14T21:05:13;19.30;95.10
44731;DHT22;30458;47.448;19.032;2023-06-14T21:15:14;19.30;95.00
44731;DHT22;30458;47.448;19.032;2023-06-14T21:25:18;19.20;94.90
44731;DHT22;30458;47.448;19.032;2023-06-14T21:35:19;19.20;95.20
44731;DHT22;30458;47.448;19.032;2023-06-14T21:45:22;19.10;95.40
44731;DHT22;30458;47.448;19.032;2023-06-14T21:55:28;19.00;95.90
44731;DHT22;30458;47.448;19.032;2023-06-14T22:05:31;18.90;95.80
44731;DHT22;30458;47.448;19.032;2023-06-14T22:15:31;18.80;96.20
44731;DHT22;30458;47.448;19.032;2023-06-14T22:25:35;18.70;96.50
44731;DHT22;30458;47.448;19.032;2023-06-14T22:35:36;18.60;96.60
44731;DHT22;30458;47.448;19.032;2023-06-14T22:45:37;18.50;96.80
44731;DHT22;30458;47.448;19.032;2023-06-14T22:55:39;18.30;97.20
44731;DHT22;30458;47.448;19.032;2023-06-14T23:05:39;18.20;97.70
44731;DHT22;30458;47.448;19.032;2023-06-14T23:15:42;17.90;98.20
44731;DHT22;30458;47.448;19.032;2023-06-14T23:25:48;17.80;98.40
44731;DHT22;30458;47.448;19.032;2023-06-14T23:35:48;17.80;98.60
44731;DHT22;30458;47.448;19.032;2023-06-14T23:45:53;17.70;98.90
44731;DHT22;30458;47.448;19.032;2023-06-14T23:55:55;17.50;99.40
